createdAt,value
2022-11-16T00:01:12.043Z,15.12
2022-11-16T00:03:45.753Z,15.15
2022-11-16T00:06:18.821Z,15.18
2022-11-16T00:09:06.372Z,15.16
2022-11-16T00:11:39.664Z,15.13
2022-11-16T00:14:12.550Z,15.13
2022-11-16T00:16:45.356Z,15.11
2022-11-16T00:19:18.751Z,15.14
2022-11-16T00:21:52.038Z,15.13
2022-11-16T00:24:25.434Z,15.18
2022-11-16T00:26:58.871Z,15.15
2022-11-16T00:29:31.824Z,15.17
2022-11-16T00:32:05.105Z,15.23
2022-11-16T00:34:38.107Z,15.24
2022-11-16T00:37:10.665Z,15.22
2022-11-16T00:39:44.571Z,15.21
2022-11-16T00:42:17.464Z,15.21
2022-11-16T00:44:50.334Z,15.21
2022-11-16T00:47:23.981Z,15.16
2022-11-16T00:49:56.418Z,15.09
2022-11-16T00:52:28.918Z,15.10
2022-11-16T00:55:02.972Z,15.11
2022-11-16T00:57:36.315Z,15.15
2022-11-16T01:00:12.880Z,15.17
2022-11-16T01:02:46.179Z,15.18
2022-11-16T01:05:18.785Z,15.18
2022-11-16T01:07:55.675Z,15.24
2022-11-16T01:10:29.070Z,15.23
2022-11-16T01:13:02.519Z,15.27
2022-11-16T01:15:35.030Z,15.31
2022-11-16T01:18:07.851Z,15.34
2022-11-16T01:20:43.127Z,15.30
2022-11-16T01:23:16.585Z,15.20
2022-11-16T01:25:49.203Z,15.16
2022-11-16T01:28:21.443Z,15.19
2022-11-16T01:30:53.859Z,15.18
2022-11-16T01:33:27.243Z,15.17
2022-11-16T01:36:00.375Z,15.12
2022-11-16T01:38:33.840Z,15.03
2022-11-16T01:41:06.728Z,15.07
2022-11-16T01:43:56.501Z,15.07
2022-11-16T01:46:29.789Z,15.05
2022-11-16T01:49:06.704Z,15.01
2022-11-16T01:51:40.472Z,14.97
2022-11-16T01:54:16.902Z,14.93
2022-11-16T01:56:50.853Z,14.92
2022-11-16T01:59:24.127Z,14.98
2022-11-16T02:01:56.925Z,15.03
2022-11-16T02:04:30.293Z,15.06
2022-11-16T02:07:07.678Z,15.05
2022-11-16T02:09:59.069Z,15.05
2022-11-16T02:12:51.565Z,15.05
2022-11-16T02:15:28.355Z,15.09
2022-11-16T02:18:08.747Z,15.08
2022-11-16T02:21:01.382Z,15.11
2022-11-16T02:24:11.346Z,15.16
2022-11-16T02:27:57.926Z,15.18
2022-11-16T02:30:33.280Z,15.22
2022-11-16T02:33:12.717Z,15.13
2022-11-16T02:35:48.466Z,15.13
2022-11-16T02:38:22.850Z,15.09
2022-11-16T02:40:59.064Z,15.08
2022-11-16T02:43:36.637Z,15.05
2022-11-16T02:46:13.778Z,15.00
2022-11-16T02:48:47.605Z,14.97
2022-11-16T02:51:20.664Z,15.00
2022-11-16T02:54:03.922Z,15.01
2022-11-16T02:56:49.842Z,15.06
2022-11-16T02:59:22.752Z,15.08
2022-11-16T03:02:02.172Z,15.07
2022-11-16T03:04:41.205Z,15.00
2022-11-16T03:07:16.591Z,15.00
2022-11-16T03:09:53.023Z,15.00
2022-11-16T03:12:30.117Z,14.99
2022-11-16T03:15:05.919Z,14.95
2022-11-16T03:17:41.848Z,14.88
2022-11-16T03:20:20.713Z,14.89
2022-11-16T03:22:55.365Z,14.90
2022-11-16T03:25:30.372Z,14.87
2022-11-16T03:28:08.605Z,14.87
2022-11-16T03:30:44.015Z,14.89
2022-11-16T03:33:19.609Z,14.92
2022-11-16T03:35:56.580Z,14.87
2022-11-16T03:38:30.461Z,14.86
2022-11-16T03:41:05.109Z,14.84
2022-11-16T03:43:38.114Z,14.83
2022-11-16T03:46:11.743Z,14.86
2022-11-16T03:48:45.197Z,14.90
2022-11-16T03:51:18.728Z,14.91
2022-11-16T03:53:51.920Z,14.92
2022-11-16T03:56:24.578Z,14.89
2022-11-16T03:58:56.825Z,14.89
2022-11-16T04:01:29.583Z,14.90
2022-11-16T04:04:03.836Z,14.91
2022-11-16T04:06:55.485Z,14.91
2022-11-16T04:09:47.330Z,14.90
2022-11-16T04:12:39.399Z,14.86
2022-11-16T04:15:31.743Z,14.81
2022-11-16T04:18:23.726Z,14.79
2022-11-16T04:21:15.757Z,14.77
2022-11-16T04:24:10.311Z,14.71
2022-11-16T04:27:02.796Z,14.70
2022-11-16T04:29:40.676Z,14.73
2022-11-16T04:32:32.630Z,14.76
2022-11-16T04:35:23.182Z,14.71
2022-11-16T04:37:57.137Z,14.72
2022-11-16T04:40:30.449Z,14.74
2022-11-16T04:43:04.477Z,14.74
2022-11-16T04:45:56.468Z,14.74
2022-11-16T04:48:29.825Z,14.72
2022-11-16T04:51:04.088Z,14.70
2022-11-16T04:53:37.093Z,14.70
2022-11-16T04:56:12.569Z,14.70
2022-11-16T04:58:45.897Z,14.69
2022-11-16T05:01:39.448Z,14.67
2022-11-16T05:04:12.499Z,14.67
2022-11-16T05:06:45.808Z,14.67
2022-11-16T05:09:19.048Z,14.64
2022-11-16T05:11:51.815Z,14.65
2022-11-16T05:14:25.269Z,14.65
2022-11-16T05:16:58.982Z,14.59
2022-11-16T05:19:50.969Z,14.61
2022-11-16T05:22:25.259Z,14.59
2022-11-16T05:24:58.042Z,14.59
2022-11-16T05:27:31.636Z,14.58
2022-11-16T05:30:06.304Z,14.56
2022-11-16T05:32:39.676Z,14.60
2022-11-16T05:35:12.999Z,14.63
2022-11-16T05:37:45.682Z,14.61
2022-11-16T05:40:20.315Z,14.62
2022-11-16T05:42:53.480Z,14.64
2022-11-16T05:45:26.668Z,14.64
2022-11-16T05:47:59.230Z,14.60
2022-11-16T05:50:32.616Z,14.60
2022-11-16T05:53:05.297Z,14.62
2022-11-16T05:55:39.801Z,14.59
2022-11-16T05:58:12.296Z,14.60
2022-11-16T06:00:46.968Z,14.59
2022-11-16T06:03:20.074Z,14.61
2022-11-16T06:05:53.610Z,14.58
2022-11-16T06:08:27.913Z,14.54
2022-11-16T06:11:04.676Z,14.54
2022-11-16T06:13:38.409Z,14.53
2022-11-16T06:16:12.832Z,14.53
2022-11-16T06:18:47.825Z,14.54
2022-11-16T06:21:21.120Z,14.57
2022-11-16T06:23:54.274Z,14.59
2022-11-16T06:26:27.271Z,14.62
2022-11-16T06:28:59.923Z,14.64
2022-11-16T06:31:36.105Z,14.62
2022-11-16T06:34:08.896Z,14.63
2022-11-16T06:36:41.338Z,14.64
2022-11-16T06:39:17.134Z,14.63
2022-11-16T06:41:50.075Z,14.63
2022-11-16T06:44:23.387Z,14.66
2022-11-16T06:46:56.676Z,14.65
2022-11-16T06:49:29.610Z,14.67
2022-11-16T06:52:02.409Z,14.70
2022-11-16T06:54:35.396Z,14.72
2022-11-16T06:57:07.737Z,14.73
2022-11-16T06:59:40.645Z,14.76
2022-11-16T07:02:13.984Z,14.74
2022-11-16T07:04:47.697Z,14.73
2022-11-16T07:07:20.128Z,14.77
2022-11-16T07:09:53.578Z,14.80
2022-11-16T07:12:27.384Z,14.78
2022-11-16T07:14:59.642Z,14.78
2022-11-16T07:17:33.676Z,14.77
2022-11-16T07:20:09.584Z,14.76
2022-11-16T07:22:42.520Z,14.73
2022-11-16T07:25:18.101Z,14.76
2022-11-16T07:27:51.944Z,14.73
2022-11-16T07:30:24.757Z,14.75
2022-11-16T07:33:02.542Z,14.75
2022-11-16T07:35:34.684Z,14.75
2022-11-16T07:38:06.534Z,14.80
2022-11-16T07:40:40.358Z,14.82
2022-11-16T07:43:12.975Z,14.83
2022-11-16T07:45:45.203Z,14.84
2022-11-16T07:48:18.373Z,14.85
2022-11-16T07:50:50.811Z,14.83
2022-11-16T07:53:24.880Z,14.82
2022-11-16T07:56:00.733Z,14.82
2022-11-16T07:58:34.989Z,14.87
2022-11-16T08:01:08.522Z,14.86
2022-11-16T08:03:42.039Z,14.83
2022-11-16T08:06:17.696Z,14.86
2022-11-16T08:08:55.129Z,14.86
2022-11-16T08:11:30.108Z,14.83
2022-11-16T08:14:03.364Z,14.80
2022-11-16T08:16:36.342Z,14.83
2022-11-16T08:19:12.105Z,14.85
2022-11-16T08:21:46.808Z,14.86
2022-11-16T08:24:20.003Z,14.87
2022-11-16T08:26:51.957Z,14.85
2022-11-16T08:29:24.162Z,14.82
2022-11-16T08:31:56.799Z,14.78
2022-11-16T08:34:29.557Z,14.78
2022-11-16T08:37:02.644Z,14.80
2022-11-16T08:39:35.656Z,14.82
2022-11-16T08:42:09.121Z,14.83
2022-11-16T08:44:41.838Z,14.89
2022-11-16T08:47:13.922Z,14.89
2022-11-16T08:49:49.579Z,14.88
2022-11-16T08:52:23.617Z,14.89
2022-11-16T08:54:55.420Z,14.89
2022-11-16T08:57:27.823Z,14.87
2022-11-16T09:00:01.617Z,14.87
2022-11-16T09:02:33.829Z,14.89
2022-11-16T09:05:12.041Z,14.87
2022-11-16T09:15:10.390Z,14.89
2022-11-16T09:17:43.182Z,14.87
2022-11-16T09:20:16.237Z,14.90
2022-11-16T09:22:48.020Z,14.95
2022-11-16T09:25:21.761Z,14.96
2022-11-16T09:27:54.293Z,14.99
2022-11-16T09:30:27.429Z,15.01
2022-11-16T09:33:01.416Z,15.04
2022-11-16T09:35:34.787Z,15.08
2022-11-16T09:38:11.808Z,15.10
2022-11-16T09:40:48.160Z,15.12
2022-11-16T09:43:32.138Z,15.11
2022-11-16T09:46:17.817Z,15.12
2022-11-16T09:48:51.285Z,15.11
2022-11-16T09:51:24.770Z,15.10
2022-11-16T09:53:59.311Z,15.10
2022-11-16T09:56:33.397Z,15.11
2022-11-16T09:59:17.970Z,15.08
2022-11-16T10:01:54.355Z,15.00
2022-11-16T10:04:37.152Z,15.00
2022-11-16T10:07:16.936Z,15.03
2022-11-16T10:09:49.845Z,15.04
2022-11-16T10:12:25.237Z,15.04
2022-11-16T10:15:12.809Z,15.03
2022-11-16T10:18:02.177Z,15.03
2022-11-16T10:20:57.055Z,15.00
2022-11-16T10:23:40.194Z,14.93
2022-11-16T10:26:21.888Z,14.92
2022-11-16T10:29:16.226Z,14.86
2022-11-16T10:32:14.127Z,14.78
2022-11-16T10:34:53.821Z,14.77
2022-11-16T10:37:34.054Z,14.72
2022-11-16T10:40:20.435Z,14.73
2022-11-16T10:43:05.328Z,14.67
2022-11-16T10:45:44.436Z,14.69
2022-11-16T10:48:21.974Z,14.69
2022-11-16T10:50:55.948Z,14.70
2022-11-16T10:53:35.452Z,14.67
2022-11-16T10:56:20.359Z,14.62
2022-11-16T10:58:58.547Z,14.58
2022-11-16T11:01:37.586Z,14.57
2022-11-16T11:04:22.062Z,14.58
2022-11-16T11:06:56.039Z,14.56
2022-11-16T11:09:33.872Z,14.58
2022-11-16T11:12:35.730Z,14.56
2022-11-16T11:15:26.619Z,14.59
2022-11-16T11:18:20.788Z,14.63
2022-11-16T11:21:06.612Z,14.54
2022-11-16T11:23:45.103Z,14.48
2022-11-16T11:26:36.448Z,14.45
2022-11-16T11:29:23.144Z,14.41
2022-11-16T11:31:58.884Z,14.37
2022-11-16T11:34:33.577Z,14.33
2022-11-16T11:37:08.561Z,14.33
2022-11-16T11:39:40.544Z,14.36
2022-11-16T11:42:26.904Z,14.34
2022-11-16T11:45:01.132Z,14.32
2022-11-16T11:47:58.101Z,14.34
2022-11-16T11:50:42.622Z,14.29
2022-11-16T11:53:25.288Z,14.17
2022-11-16T11:55:59.045Z,14.03
2022-11-16T11:58:34.284Z,13.90
2022-11-16T12:01:25.871Z,13.78
2022-11-16T12:04:31.400Z,13.61
2022-11-16T12:07:07.392Z,13.47
2022-11-16T12:09:42.580Z,13.37
2022-11-16T12:12:27.065Z,13.29
2022-11-16T12:15:16.992Z,13.20
2022-11-16T12:17:55.947Z,13.18
2022-11-16T12:20:43.876Z,13.17
2022-11-16T12:23:42.317Z,13.14
2022-11-16T12:26:21.611Z,13.06
2022-11-16T12:29:03.750Z,13.03
2022-11-16T12:31:58.545Z,13.04
2022-11-16T12:34:40.184Z,13.06
2022-11-16T12:37:17.171Z,12.98
2022-11-16T12:39:57.741Z,12.95
2022-11-16T12:42:41.983Z,12.87
2022-11-16T12:45:34.922Z,12.85
2022-11-16T12:48:30.278Z,12.94
2022-11-16T12:51:09.433Z,12.98
2022-11-16T12:54:02.992Z,13.03
2022-11-16T12:56:48.632Z,13.03
2022-11-16T12:59:43.452Z,13.05
2022-11-16T13:02:29.745Z,13.09
2022-11-16T13:05:05.476Z,13.12
2022-11-16T13:07:42.195Z,13.11
2022-11-16T13:10:20.000Z,13.14
2022-11-16T13:13:09.095Z,13.17
2022-11-16T13:15:48.138Z,13.26
2022-11-16T13:18:23.985Z,13.19
2022-11-16T13:21:00.010Z,13.12
2022-11-16T13:23:42.978Z,13.16
2022-11-16T13:26:21.996Z,13.19
2022-11-16T13:29:00.694Z,13.24
2022-11-16T13:31:36.810Z,13.29
2022-11-16T13:34:14.040Z,13.31
2022-11-16T13:36:49.185Z,13.31
2022-11-16T13:39:23.310Z,13.29
2022-11-16T13:42:09.195Z,13.32
2022-11-16T13:44:41.910Z,13.31
2022-11-16T13:47:24.766Z,13.25
2022-11-16T13:49:58.843Z,13.21
2022-11-16T13:53:23.414Z,13.25
2022-11-16T13:55:39.977Z,13.26
2022-11-16T13:58:22.090Z,13.23
2022-11-16T14:01:04.819Z,13.20
2022-11-16T14:03:41.979Z,13.13
2022-11-16T14:06:50.449Z,13.13
2022-11-16T14:09:50.498Z,13.11
2022-11-16T14:12:58.926Z,13.09
2022-11-16T14:15:36.553Z,12.89
2022-11-16T14:18:36.315Z,12.76
2022-11-16T14:21:17.397Z,12.75
2022-11-16T14:24:13.426Z,12.80
2022-11-16T14:26:51.382Z,12.81
2022-11-16T14:30:02.502Z,12.83
2022-11-16T14:32:42.763Z,12.73
2022-11-16T14:35:31.710Z,12.68
2022-11-16T14:38:06.219Z,12.69
2022-11-16T14:40:46.950Z,12.72
2022-11-16T14:43:20.996Z,12.70
2022-11-16T14:45:58.468Z,12.65
2022-11-16T14:48:33.036Z,12.66
2022-11-16T14:51:08.970Z,12.71
2022-11-16T14:53:45.838Z,12.73
2022-11-16T14:56:20.035Z,12.69
2022-11-16T14:58:58.209Z,12.69
2022-11-16T15:01:32.326Z,12.71
2022-11-16T15:04:09.754Z,12.72
2022-11-16T15:06:46.301Z,12.63
2022-11-16T15:09:26.026Z,12.64
2022-11-16T15:12:18.649Z,12.62
2022-11-16T15:14:53.899Z,12.54
2022-11-16T15:17:31.951Z,12.57
2022-11-16T15:20:16.845Z,12.56
2022-11-16T15:22:53.277Z,12.59
2022-11-16T15:25:31.003Z,12.58
2022-11-16T15:28:06.076Z,12.52
2022-11-16T15:30:40.552Z,12.49
2022-11-16T15:33:16.862Z,12.47
2022-11-16T15:35:56.107Z,12.46
2022-11-16T15:38:31.290Z,12.45
2022-11-16T15:41:06.501Z,12.44
2022-11-16T15:44:01.397Z,12.48
2022-11-16T15:46:35.673Z,12.50
2022-11-16T15:49:13.946Z,12.50
2022-11-16T15:51:49.287Z,12.50
2022-11-16T15:54:27.452Z,12.49
2022-11-16T15:57:10.649Z,12.47
2022-11-16T15:59:42.840Z,12.48
2022-11-16T16:02:21.005Z,12.52
2022-11-16T16:04:55.567Z,12.58
2022-11-16T16:07:41.771Z,12.56
2022-11-16T16:10:27.522Z,12.60
2022-11-16T16:13:01.435Z,12.61
2022-11-16T16:15:36.861Z,12.59
2022-11-16T16:18:39.447Z,12.57
2022-11-16T16:21:11.555Z,12.60
2022-11-16T16:23:50.231Z,12.56
2022-11-16T16:26:28.063Z,12.56
2022-11-16T16:29:01.606Z,12.54
2022-11-16T16:31:34.318Z,12.59
2022-11-16T16:34:15.209Z,12.61
2022-11-16T16:36:48.109Z,12.58
2022-11-16T16:39:20.169Z,12.55
2022-11-16T16:41:52.826Z,12.50
2022-11-16T16:44:25.484Z,12.48
2022-11-16T16:46:57.402Z,12.43
2022-11-16T16:49:29.338Z,12.44
2022-11-16T16:52:02.581Z,12.45
2022-11-16T16:54:35.164Z,12.44
2022-11-16T16:57:07.054Z,12.44
2022-11-16T16:59:39.405Z,12.42
2022-11-16T17:02:12.637Z,12.42
2022-11-16T17:04:46.859Z,12.43
2022-11-16T17:07:19.302Z,12.44
2022-11-16T17:09:51.649Z,12.43
2022-11-16T17:12:23.557Z,12.48
2022-11-16T17:14:55.786Z,12.46
2022-11-16T17:17:27.786Z,12.46
2022-11-16T17:20:00.041Z,12.48
2022-11-16T17:22:33.608Z,12.48
2022-11-16T17:25:05.657Z,12.47
2022-11-16T17:27:38.056Z,12.41
2022-11-16T17:30:12.745Z,12.41
2022-11-16T17:32:44.685Z,12.37
2022-11-16T17:35:16.899Z,12.35
2022-11-16T17:37:48.710Z,12.32
2022-11-16T17:40:21.588Z,12.33
2022-11-16T17:42:53.502Z,12.36
2022-11-16T17:45:25.422Z,12.34
2022-11-16T17:47:58.412Z,12.33
2022-11-16T17:50:30.164Z,12.28
2022-11-16T17:53:02.125Z,12.21
2022-11-16T17:55:33.994Z,12.21
2022-11-16T17:58:07.131Z,12.23
2022-11-16T18:00:38.889Z,12.20
2022-11-16T18:03:10.740Z,12.09
2022-11-16T18:05:42.561Z,12.05
2022-11-16T18:08:14.526Z,12.10
2022-11-16T18:10:47.047Z,12.14
2022-11-16T18:13:18.902Z,12.14
2022-11-16T18:15:50.884Z,12.09
2022-11-16T18:18:22.715Z,11.99
2022-11-16T18:20:54.608Z,11.96
2022-11-16T18:23:27.348Z,11.95
2022-11-16T18:25:59.196Z,11.91
2022-11-16T18:28:31.296Z,11.86
2022-11-16T18:31:07.349Z,11.87
2022-11-16T18:33:39.936Z,11.84
2022-11-16T18:36:12.665Z,11.78
2022-11-16T18:38:44.494Z,11.75
2022-11-16T18:41:21.157Z,11.73
2022-11-16T18:43:54.722Z,11.66
2022-11-16T18:46:28.031Z,11.59
2022-11-16T18:49:00.779Z,11.56
2022-11-16T18:51:33.264Z,11.58
2022-11-16T18:54:05.570Z,11.58
2022-11-16T18:56:37.387Z,11.58
2022-11-16T18:59:09.294Z,11.54
2022-11-16T19:01:41.073Z,11.48
2022-11-16T19:04:13.287Z,11.45
2022-11-16T19:06:45.137Z,11.42
2022-11-16T19:09:17.018Z,11.35
2022-11-16T19:11:50.854Z,11.25
2022-11-16T19:14:22.888Z,11.16
2022-11-16T19:16:57.283Z,11.11
2022-11-16T19:19:29.920Z,11.11
2022-11-16T19:22:02.872Z,11.00
2022-11-16T19:24:34.864Z,10.95
2022-11-16T19:27:06.852Z,10.97
2022-11-16T19:29:38.835Z,10.93
2022-11-16T19:32:10.742Z,10.85
2022-11-16T19:34:42.550Z,10.71
2022-11-16T19:37:15.158Z,10.61
2022-11-16T19:39:47.113Z,10.60
2022-11-16T19:42:18.877Z,10.59
2022-11-16T19:44:50.639Z,10.60
2022-11-16T19:47:26.203Z,10.56
2022-11-16T19:49:58.156Z,10.48
2022-11-16T19:52:30.263Z,10.36
2022-11-16T19:55:02.093Z,10.31
2022-11-16T19:57:34.111Z,10.38
2022-11-16T20:00:07.709Z,10.45
2022-11-16T20:02:39.846Z,10.40
2022-11-16T20:05:13.721Z,10.41
2022-11-16T20:07:45.525Z,10.30
2022-11-16T20:10:17.727Z,10.20
2022-11-16T20:12:49.874Z,10.14
2022-11-16T20:15:25.379Z,10.13
2022-11-16T20:17:57.278Z,10.17
2022-11-16T20:20:29.126Z,10.20
2022-11-16T20:23:02.763Z,10.24
2022-11-16T20:25:35.451Z,10.23
2022-11-16T20:28:07.718Z,10.18
2022-11-16T20:30:39.832Z,10.11
2022-11-16T20:33:13.900Z,10.05
2022-11-16T20:35:45.761Z,9.99
2022-11-16T20:38:17.666Z,9.95
2022-11-16T20:40:50.003Z,9.89
2022-11-16T20:43:24.902Z,9.86
2022-11-16T20:45:57.190Z,9.87
2022-11-16T20:48:29.495Z,9.85
2022-11-16T20:51:03.397Z,9.81
2022-11-16T20:53:35.616Z,9.82
2022-11-16T20:56:09.077Z,9.83
2022-11-16T20:58:41.423Z,9.76
2022-11-16T21:01:15.756Z,9.71
2022-11-16T21:03:47.952Z,9.73
2022-11-16T21:06:19.901Z,9.72
2022-11-16T21:08:52.126Z,9.66
2022-11-16T21:11:26.063Z,9.59
2022-11-16T21:14:15.571Z,9.49
2022-11-16T21:16:47.549Z,9.39
2022-11-16T21:19:19.722Z,9.37
2022-11-16T21:21:51.626Z,9.38
2022-11-16T21:24:24.843Z,9.43
2022-11-16T21:26:56.794Z,9.44
2022-11-16T21:29:30.730Z,9.47
2022-11-16T21:32:03.010Z,9.42
2022-11-16T21:34:39.965Z,9.35
2022-11-16T21:37:12.778Z,9.35
2022-11-16T21:39:44.574Z,9.33
2022-11-16T21:42:16.559Z,9.30
2022-11-16T21:44:48.646Z,9.25
2022-11-16T21:47:21.219Z,9.23
2022-11-16T21:50:24.830Z,9.15
2022-11-16T21:52:45.349Z,9.16
2022-11-16T21:55:19.600Z,9.17
2022-11-16T21:57:52.538Z,9.12
2022-11-16T22:00:24.994Z,9.12
2022-11-16T22:02:57.018Z,9.01
2022-11-16T22:05:46.346Z,8.88
2022-11-16T22:08:18.630Z,8.86
2022-11-16T22:10:54.566Z,8.93
2022-11-16T22:13:28.661Z,8.97
2022-11-16T22:16:04.023Z,8.98
2022-11-16T22:18:36.494Z,8.96
2022-11-16T22:21:09.041Z,8.99
2022-11-16T22:23:41.710Z,9.02
2022-11-16T22:26:14.913Z,9.01
2022-11-16T22:28:46.925Z,8.94
2022-11-16T22:31:19.823Z,8.86
2022-11-16T22:33:54.654Z,8.89
2022-11-16T22:36:26.716Z,8.94
2022-11-16T22:38:58.515Z,8.94
2022-11-16T22:41:30.505Z,8.95
2022-11-16T22:44:02.729Z,8.95
2022-11-16T22:46:34.651Z,8.95
2022-11-16T22:49:06.984Z,8.95
2022-11-16T22:51:42.469Z,8.83
2022-11-16T22:54:15.643Z,8.81
2022-11-16T22:56:48.243Z,8.80
2022-11-16T22:59:20.052Z,8.85
2022-11-16T23:01:51.949Z,8.81
2022-11-16T23:04:23.924Z,8.78
2022-11-16T23:06:55.807Z,8.83
2022-11-16T23:09:27.647Z,8.88
2022-11-16T23:12:17.052Z,8.95
2022-11-16T23:15:06.427Z,9.05
2022-11-16T23:17:38.855Z,9.05
2022-11-16T23:20:30.528Z,8.98
2022-11-16T23:23:20.798Z,8.97
2022-11-16T23:26:11.905Z,9.02
2022-11-16T23:28:44.400Z,9.03
2022-11-16T23:31:17.057Z,9.06
2022-11-16T23:33:50.242Z,9.10
2022-11-16T23:36:22.973Z,9.15
2022-11-16T23:38:55.734Z,9.21
2022-11-16T23:41:46.253Z,9.21
2022-11-16T23:44:18.384Z,9.24
2022-11-16T23:46:51.006Z,9.25
2022-11-16T23:49:23.966Z,9.20
2022-11-16T23:51:57.743Z,9.13
2022-11-16T23:54:31.151Z,9.10
2022-11-16T23:57:04.726Z,9.04
2022-11-16T23:59:37.576Z,9.01
